Time;durP1;ratioP1;P1;durP2;ratioP2;P2;SDS_P1;SDS_P2;PMS_P1;PMS_P2;Temp;Humidity;BMP_temperature;BMP_pressure;BME280_temperature;BME280_humidity;BME280_pressure;Samples;Min_cycle;Max_cycle;Signal;HPM_P1;HPM_P2
2023/06/10 00:02:11;;;;;;;14.07;5.95;;;16.10;99.90;;;;;;5003366;28;20053;-74
2023/06/10 00:04:45;;;;;;;10.77;6.00;;;16.00;99.90;;;;;;5026991;28;20076;-75
2023/06/10 00:07:13;;;;;;;10.32;5.50;;;16.00;99.90;;;;;;5028168;28;20045;-73
2023/06/10 00:09:48;;;;;;;8.23;5.07;;;16.00;99.90;;;;;;5004629;28;20089;-75
2023/06/10 00:12:21;;;;;;;10.93;5.53;;;16.00;99.90;;;;;;5010709;28;20045;-75
2023/06/10 00:14:51;;;;;;;9.55;5.25;;;15.90;99.90;;;;;;5026651;28;20063;-74
2023/06/10 00:17:18;;;;;;;9.02;5.40;;;15.90;99.90;;;;;;5033735;28;20080;-74
2023/06/10 00:19:52;;;;;;;8.35;5.28;;;15.80;99.90;;;;;;5011513;28;20496;-74
2023/06/10 00:22:29;;;;;;;9.80;5.43;;;15.90;99.90;;;;;;5012226;28;20133;-74
2023/06/10 00:25:23;;;;;;;10.65;5.63;;;15.80;99.90;;;;;;4995231;28;20064;-74
2023/06/10 00:27:57;;;;;;;8.43;5.07;;;15.80;99.90;;;;;;5022059;28;20056;-74
2023/06/10 00:30:39;;;;;;;10.15;5.35;;;15.80;99.90;;;;;;5003145;28;20053;-74
2023/06/10 00:33:27;;;;;;;10.30;5.53;;;14.70;99.90;;;;;;5025653;28;20076;-74
2023/06/10 00:36:04;;;;;;;10.63;5.47;;;15.70;99.90;;;;;;5042379;28;20083;-74
2023/06/10 00:38:33;;;;;;;8.68;4.65;;;15.70;99.90;;;;;;5025635;28;20061;-74
2023/06/10 00:41:01;;;;;;;9.77;4.95;;;15.70;99.90;;;;;;5034667;28;20083;-74
2023/06/10 00:43:36;;;;;;;8.25;5.10;;;15.60;99.90;;;;;;5019304;28;20107;-74
2023/06/10 00:46:05;;;;;;;8.52;4.93;;;15.60;99.90;;;;;;5019041;28;20529;-75
2023/06/10 00:48:35;;;;;;;10.15;4.85;;;15.60;99.90;;;;;;5003574;28;20057;-74
2023/06/10 00:51:08;;;;;;;13.55;5.65;;;15.60;99.90;;;;;;5026563;28;20127;-74
2023/06/10 00:53:44;;;;;;;8.20;4.75;;;15.60;99.90;;;;;;5026847;28;20133;-75
2023/06/10 00:56:39;;;;;;;11.52;4.97;;;15.60;99.90;;;;;;5019490;28;20120;-75
2023/06/10 00:59:07;;;;;;;14.38;6.00;;;15.60;99.90;;;;;;5018636;28;20576;-74
2023/06/10 01:01:52;;;;;;;8.93;5.43;;;15.60;99.90;;;;;;5024830;28;20072;-74
2023/06/10 01:04:23;;;;;;;10.10;5.43;;;15.50;99.90;;;;;;5028455;28;20441;-74
2023/06/10 01:07:47;;;;;;;9.98;5.28;;;15.50;99.90;;;;;;5036326;28;20041;-74
2023/06/10 01:10:42;;;;;;;9.20;5.47;;;15.50;99.90;;;;;;4932518;29;20205;-76
2023/06/10 01:13:11;;;;;;;7.40;5.43;;;15.50;99.90;;;;;;4914563;29;20494;-76
2023/06/10 01:15:44;;;;;;;9.00;5.38;;;15.50;99.90;;;;;;4915141;29;20414;-75
2023/06/10 01:18:30;;;;;;;10.40;5.00;;;15.50;99.90;;;;;;4930754;29;20097;-73
2023/06/10 01:20:57;;;;;;;7.88;5.18;;;15.40;99.90;;;;;;4923529;29;20153;-73
2023/06/10 01:23:33;;;;;;;8.35;5.15;;;15.40;99.90;;;;;;4938370;29;20150;-73
2023/06/10 01:26:12;;;;;;;11.55;6.13;;;15.50;99.90;;;;;;4910149;29;20066;-74
2023/06/10 01:29:08;;;;;;;8.55;5.82;;;15.40;99.90;;;;;;4986167;28;20090;-74
2023/06/10 01:31:51;;;;;;;10.23;5.72;;;15.40;99.90;;;;;;5026534;28;20455;-74
2023/06/10 01:34:31;;;;;;;10.55;5.95;;;15.40;99.90;;;;;;5025223;28;20057;-74
2023/06/10 01:37:03;;;;;;;8.10;5.57;;;15.30;99.90;;;;;;4992108;28;20487;-73
2023/06/10 01:39:49;;;;;;;8.95;5.72;;;15.30;99.90;;;;;;4992580;28;20104;-74
2023/06/10 01:42:28;;;;;;;11.70;6.13;;;15.30;99.90;;;;;;5007444;28;20065;-73
2023/06/10 01:45:15;;;;;;;9.23;5.93;;;15.30;99.90;;;;;;5006815;28;20057;-73
2023/06/10 01:47:50;;;;;;;9.43;5.55;;;15.30;99.90;;;;;;5042218;28;20527;-74
2023/06/10 01:50:17;;;;;;;9.43;5.93;;;15.30;99.90;;;;;;5042199;28;20159;-73
2023/06/10 01:52:52;;;;;;;7.57;5.35;;;15.20;99.90;;;;;;5042551;28;20093;-73
2023/06/10 01:55:22;;;;;;;9.98;5.32;;;15.20;99.90;;;;;;5013064;28;20128;-73
2023/06/10 01:57:58;;;;;;;11.07;5.65;;;15.20;99.90;;;;;;5030489;28;20471;-72
2023/06/10 02:00:41;;;;;;;9.55;5.63;;;15.20;99.90;;;;;;5031639;28;20056;-73
2023/06/10 02:03:09;;;;;;;11.35;5.43;;;15.10;99.90;;;;;;5044490;28;20119;-73
2023/06/10 02:05:43;;;;;;;;;;;15.10;99.90;;;;;;5006716;28;20483;-73
2023/06/10 02:08:12;;;;;;;10.57;5.45;;;15.10;99.90;;;;;;5060633;28;19940;-73
2023/06/10 02:10:48;;;;;;;10.38;5.25;;;15.00;99.90;;;;;;5021237;28;20508;-73
2023/06/10 02:13:20;;;;;;;10.02;5.70;;;15.10;99.90;;;;;;5029471;28;20136;-73
2023/06/10 02:15:56;;;;;;;8.48;5.28;;;15.00;99.90;;;;;;5020448;28;20119;-75
2023/06/10 02:18:23;;;;;;;10.35;5.95;;;15.00;99.90;;;;;;5028155;28;20065;-73
2023/06/10 02:20:51;;;;;;;10.98;5.75;;;15.00;99.90;;;;;;5028127;28;20061;-74
2023/06/10 02:23:31;;;;;;;8.43;5.20;;;15.00;99.90;;;;;;5022763;28;20583;-73
2023/06/10 02:26:02;;;;;;;9.32;5.47;;;14.90;99.90;;;;;;5029234;28;20129;-74
2023/06/10 02:28:32;;;;;;;10.35;5.82;;;14.90;99.90;;;;;;5030248;28;20061;-73
2023/06/10 02:31:18;;;;;;;11.57;5.72;;;14.90;99.90;;;;;;5006548;28;20060;-73
2023/06/10 02:33:50;;;;;;;8.80;5.30;;;14.90;99.90;;;;;;5028252;28;20095;-73
2023/06/10 02:36:18;;;;;;;10.95;5.82;;;14.80;99.90;;;;;;5030084;28;20081;-73
2023/06/10 02:38:51;;;;;;;9.60;5.75;;;14.80;99.90;;;;;;5013419;28;20053;-74
2023/06/10 02:41:27;;;;;;;8.85;5.60;;;14.80;99.90;;;;;;5029154;28;21020;-73
2023/06/10 02:44:04;;;;;;;9.85;5.70;;;14.80;99.90;;;;;;5010539;28;20054;-73
2023/06/10 02:46:35;;;;;;;10.30;6.30;;;14.70;99.90;;;;;;5029308;28;20055;-72
2023/06/10 02:49:05;;;;;;;9.88;5.85;;;14.70;99.90;;;;;;5029246;28;20053;-73
2023/06/10 02:51:31;;;;;;;8.48;5.80;;;14.70;99.90;;;;;;5004929;28;20088;-72
2023/06/10 02:54:02;;;;;;;8.68;6.05;;;14.70;99.90;;;;;;5020768;28;20801;-73
2023/06/10 02:56:33;;;;;;;8.10;5.30;;;14.60;99.90;;;;;;5025984;28;20460;-73
2023/06/10 02:59:08;;;;;;;10.18;5.72;;;14.60;99.90;;;;;;5044674;28;20366;-73
2023/06/10 03:01:37;;;;;;;9.80;6.05;;;14.60;99.90;;;;;;5012312;28;20152;-74
2023/06/10 03:04:18;;;;;;;12.65;6.13;;;14.50;99.90;;;;;;5013079;28;20166;-72
2023/06/10 03:06:51;;;;;;;9.50;5.88;;;14.50;99.90;;;;;;4991550;28;20060;-73
2023/06/10 03:09:24;;;;;;;7.95;6.03;;;14.50;99.90;;;;;;4990464;28;20065;-73
2023/06/10 03:12:00;;;;;;;10.63;5.65;;;14.50;99.90;;;;;;5021429;28;20053;-74
2023/06/10 03:14:34;;;;;;;8.27;5.55;;;14.50;99.90;;;;;;4975821;28;20112;-74
2023/06/10 03:17:15;;;;;;;10.20;6.28;;;14.40;99.90;;;;;;5007158;28;20059;-74
2023/06/10 03:19:57;;;;;;;9.10;6.30;;;14.40;99.90;;;;;;4968718;28;20065;-75
2023/06/10 03:22:25;;;;;;;;;;;14.40;99.90;;;;;;4975582;28;20068;-74
2023/06/10 03:25:21;;;;;;;10.43;6.50;;;14.30;99.90;;;;;;5005436;28;19979;-73
2023/06/10 03:27:59;;;;;;;9.52;6.13;;;14.30;99.90;;;;;;5006605;28;20089;-73
2023/06/10 03:30:31;;;;;;;9.07;5.93;;;14.30;99.90;;;;;;4982982;28;20061;-74
2023/06/10 03:33:11;;;;;;;10.30;5.88;;;14.30;99.90;;;;;;4990132;28;20112;-74
2023/06/10 03:35:57;;;;;;;11.05;6.10;;;14.30;99.90;;;;;;4971541;28;20432;-74
2023/06/10 03:38:41;;;;;;;11.15;5.88;;;14.30;99.90;;;;;;5023386;28;20605;-74
2023/06/10 03:41:26;;;;;;;8.82;5.88;;;14.30;99.90;;;;;;5013750;28;20187;-74
2023/06/10 03:44:12;;;;;;;7.95;5.32;;;14.30;99.90;;;;;;5029145;28;20049;-74
2023/06/10 03:46:40;;;;;;;8.55;5.47;;;14.30;99.90;;;;;;5025898;28;20095;-74
2023/06/10 03:49:19;;;;;;;10.00;5.60;;;14.30;99.90;;;;;;5017465;28;20170;-74
2023/06/10 03:51:59;;;;;;;8.90;5.85;;;14.20;99.90;;;;;;5059687;28;20053;-74
2023/06/10 03:54:42;;;;;;;11.35;5.50;;;14.30;99.90;;;;;;5013658;28;20084;-73
2023/06/10 03:57:11;;;;;;;11.60;6.05;;;14.20;99.90;;;;;;5029246;28;20041;-74
2023/06/10 03:59:45;;;;;;;10.52;5.55;;;14.30;99.90;;;;;;5011308;28;20103;-74
2023/06/10 04:02:27;;;;;;;9.93;5.75;;;14.30;99.90;;;;;;5027096;28;20056;-73
2023/06/10 04:05:09;;;;;;;10.52;5.35;;;14.30;99.90;;;;;;5028163;28;20052;-73
2023/06/10 04:07:36;;;;;;;8.25;4.75;;;14.30;99.90;;;;;;5009079;28;20512;-73
2023/06/10 04:10:02;;;;;;;8.00;4.50;;;14.50;99.90;;;;;;5019123;28;20115;-73
2023/06/10 04:12:35;;;;;;;9.18;5.40;;;14.30;99.90;;;;;;4993317;28;20561;-73
2023/06/10 04:15:08;;;;;;;8.18;4.88;;;14.40;99.90;;;;;;5011993;28;20088;-74
2023/06/10 04:17:51;;;;;;;8.10;5.85;;;14.40;99.90;;;;;;5021522;28;20208;-74
2023/06/10 04:20:18;;;;;;;7.50;4.90;;;14.40;99.90;;;;;;5002029;28;20061;-74
2023/06/10 04:22:54;;;;;;;9.52;5.18;;;14.50;99.90;;;;;;5028009;28;20446;-74
2023/06/10 04:25:41;;;;;;;10.27;5.13;;;14.50;99.90;;;;;;5025857;28;20095;-73
2023/06/10 04:28:30;;;;;;;9.35;5.13;;;14.50;99.90;;;;;;5028392;28;20135;-74
2023/06/10 04:31:04;;;;;;;8.95;5.10;;;14.60;99.90;;;;;;5026824;28;20061;-74
2023/06/10 04:33:57;;;;;;;8.52;5.22;;;14.60;99.90;;;;;;5042702;28;20059;-74
2023/06/10 04:36:30;;;;;;;8.43;4.90;;;14.60;99.90;;;;;;5030951;28;20208;-74
2023/06/10 04:38:56;;;;;;;9.25;5.00;;;14.70;99.90;;;;;;5025792;28;20072;-75
2023/06/10 04:41:32;;;;;;;10.18;5.38;;;14.70;99.90;;;;;;4995612;28;20140;-74
2023/06/10 04:43:58;;;;;;;8.73;4.68;;;14.80;99.90;;;;;;5012937;28;20131;-74
2023/06/10 04:46:31;;;;;;;8.32;4.57;;;14.80;99.90;;;;;;4994576;28;20053;-74
2023/06/10 04:49:16;;;;;;;9.73;5.63;;;15.10;99.90;;;;;;5017952;28;20044;-73
2023/06/10 04:51:54;;;;;;;9.95;5.38;;;14.60;99.90;;;;;;5010489;28;20060;-74
2023/06/10 04:54:34;;;;;;;10.35;5.70;;;14.90;99.90;;;;;;5028853;28;20060;-73
2023/06/10 04:57:00;;;;;;;10.25;5.45;;;15.00;99.90;;;;;;5026261;28;20095;-74
2023/06/10 04:59:29;;;;;;;8.18;4.88;;;15.00;99.90;;;;;;5044961;28;20080;-74
2023/06/10 05:02:26;;;;;;;9.93;5.75;;;15.10;99.90;;;;;;4959171;28;20057;-73
2023/06/10 05:04:57;;;;;;;11.38;5.35;;;15.10;99.90;;;;;;5043470;28;20049;-74
2023/06/10 05:07:28;;;;;;;8.35;5.32;;;15.10;99.90;;;;;;5011410;28;20091;-73
2023/06/10 05:10:04;;;;;;;8.23;4.90;;;15.20;99.90;;;;;;5026441;28;20519;-73
2023/06/10 05:12:32;;;;;;;8.18;5.55;;;15.30;99.90;;;;;;5003170;28;20063;-73
2023/06/10 05:15:30;;;;;;;9.82;5.15;;;15.30;99.90;;;;;;5027092;28;20824;-73
2023/06/10 05:18:15;;;;;;;8.23;4.97;;;15.40;99.90;;;;;;5027075;28;20056;-74
2023/06/10 05:20:46;;;;;;;9.50;5.00;;;15.50;99.90;;;;;;5024426;28;20045;-74
2023/06/10 05:23:21;;;;;;;9.82;4.97;;;15.50;99.90;;;;;;5034004;28;20056;-75
2023/06/10 05:25:55;;;;;;;7.55;5.28;;;15.60;99.90;;;;;;5041485;28;20048;-74
2023/06/10 05:28:35;;;;;;;7.75;4.95;;;15.70;99.90;;;;;;5026403;28;20053;-73
2023/06/10 05:31:10;;;;;;;9.27;4.95;;;15.80;99.90;;;;;;5042875;28;20061;-74
2023/06/10 05:33:59;;;;;;;10.07;5.45;;;15.90;99.90;;;;;;5020789;28;20048;-73
2023/06/10 05:36:36;;;;;;;8.95;4.72;;;16.00;99.90;;;;;;5021551;28;20054;-75
2023/06/10 05:39:17;;;;;;;7.38;4.35;;;16.10;99.90;;;;;;5029373;28;20136;-72
2023/06/10 05:41:50;;;;;;;6.13;4.75;;;15.70;99.90;;;;;;5011721;28;20527;-75
2023/06/10 05:44:16;;;;;;;8.48;4.78;;;15.50;99.90;;;;;;4994426;28;20463;-74
2023/06/10 05:46:59;;;;;;;7.38;4.43;;;16.50;99.90;;;;;;5044838;28;20103;-76
2023/06/10 05:49:42;;;;;;;7.10;4.55;;;16.60;99.90;;;;;;5029331;28;20144;-75
2023/06/10 05:52:13;;;;;;;8.52;4.63;;;16.80;99.90;;;;;;4982586;28;20119;-73
2023/06/10 05:54:48;;;;;;;7.20;4.40;;;16.90;99.90;;;;;;5024302;28;20060;-74
2023/06/10 05:57:16;;;;;;;10.85;4.78;;;17.10;99.90;;;;;;5008542;28;20049;-75
2023/06/10 06:00:06;;;;;;;7.40;4.47;;;17.20;99.90;;;;;;5030149;28;20091;-74
2023/06/10 06:02:59;;;;;;;6.93;4.50;;;17.40;99.90;;;;;;5015706;28;20055;-74
2023/06/10 06:05:34;;;;;;;6.97;4.53;;;17.50;99.90;;;;;;5042685;28;20144;-73
2023/06/10 06:08:17;;;;;;;8.30;4.20;;;17.60;99.90;;;;;;5028047;28;20525;-73
2023/06/10 06:10:52;;;;;;;7.40;4.15;;;17.80;99.90;;;;;;4989391;28;20550;-73
2023/06/10 06:13:48;;;;;;;8.13;4.63;;;17.90;99.90;;;;;;5004834;28;20076;-73
2023/06/10 06:16:36;;;;;;;7.38;4.22;;;18.10;99.90;;;;;;4980301;28;20061;-73
2023/06/10 06:19:12;;;;;;;7.85;4.25;;;18.30;99.90;;;;;;4971435;28;20496;-73
2023/06/10 06:22:11;;;;;;;9.55;4.60;;;18.40;99.90;;;;;;4981486;28;20113;-74
2023/06/10 06:24:50;;;;;;;7.85;4.00;;;18.60;99.90;;;;;;4987708;28;20057;-74
2023/06/10 06:27:47;;;;;;;7.90;3.95;;;18.70;99.90;;;;;;5003976;28;20502;-73
2023/06/10 06:30:22;;;;;;;6.05;3.85;;;18.90;99.90;;;;;;5004549;28;20089;-73
2023/06/10 06:32:55;;;;;;;7.47;4.18;;;19.10;99.90;;;;;;4990216;28;20475;-73
2023/06/10 06:35:27;;;;;;;6.28;3.65;;;19.20;99.90;;;;;;4972516;28;20049;-74
2023/06/10 06:41:15;;;;;;;6.15;3.72;;;19.60;99.90;;;;;;4974484;28;20136;-74
2023/06/10 06:43:50;;;;;;;6.63;3.75;;;19.80;99.90;;;;;;5022841;28;20072;-74
2023/06/10 06:46:52;;;;;;;6.32;3.72;;;20.00;99.90;;;;;;5023581;28;20053;-75
2023/06/10 06:53:07;;;;;;;6.72;3.90;;;20.40;99.90;;;;;;4988956;28;20317;-74
2023/06/10 06:55:46;;;;;;;8.27;3.65;;;20.70;99.90;;;;;;4986069;28;20132;-75
2023/06/10 06:58:41;;;;;;;6.85;3.78;;;20.90;99.90;;;;;;4981668;28;20058;-74
2023/06/10 07:01:08;;;;;;;7.10;3.60;;;21.10;99.90;;;;;;5003714;28;20046;-74
2023/06/10 07:04:02;;;;;;;5.68;3.55;;;21.30;99.90;;;;;;4988584;28;20125;-74
2023/06/10 07:06:44;;;;;;;5.90;3.38;;;21.50;99.90;;;;;;4986241;28;20155;-75
2023/06/10 07:09:22;;;;;;;9.05;3.78;;;21.70;99.90;;;;;;4953353;28;20097;-74
2023/06/10 07:12:05;;;;;;;6.28;3.30;;;21.90;99.90;;;;;;4955450;28;20064;-74
2023/06/10 07:15:09;;;;;;;7.53;3.47;;;22.10;99.90;;;;;;5002396;28;20527;-74
2023/06/10 07:18:29;;;;;;;5.90;3.40;;;22.30;99.90;;;;;;4938317;28;20061;-74
2023/06/10 07:21:32;;;;;;;5.85;2.80;;;22.60;99.90;;;;;;5044380;28;20577;-74
2023/06/10 07:24:08;;;;;;;6.38;3.10;;;22.90;99.90;;;;;;5029403;28;20463;-75
2023/06/10 07:26:53;;;;;;;5.88;3.72;;;23.10;99.90;;;;;;5015067;28;20085;-74
2023/06/10 07:29:42;;;;;;;6.93;3.33;;;23.30;99.90;;;;;;5026294;28;20089;-75
2023/06/10 07:32:36;;;;;;;5.50;3.25;;;23.50;99.90;;;;;;5025241;28;20080;-75
2023/06/10 07:35:15;;;;;;;6.25;3.17;;;24.30;99.90;;;;;;5012004;28;20049;-75
2023/06/10 07:38:36;;;;;;;5.72;2.95;;;24.20;99.90;;;;;;5011975;28;20079;-74
2023/06/10 07:41:17;;;;;;;4.80;2.88;;;24.40;99.60;;;;;;5029086;28;20088;-74
2023/06/10 07:44:05;;;;;;;4.90;3.00;;;24.70;99.90;;;;;;5014841;28;20064;-75
2023/06/10 07:46:37;;;;;;;7.15;2.70;;;25.00;99.60;;;;;;5014807;28;20061;-75
2023/06/10 07:49:03;;;;;;;6.10;2.80;;;25.20;98.70;;;;;;5004729;28;20054;-76
2023/06/10 07:51:36;;;;;;;6.32;2.60;;;25.30;98.30;;;;;;5005066;28;20500;-75
2023/06/10 07:54:05;;;;;;;4.70;2.83;;;25.60;98.00;;;;;;5015018;28;20050;-74
2023/06/10 07:56:37;;;;;;;6.72;3.10;;;25.80;97.50;;;;;;5014676;28;20061;-74
2023/06/10 07:59:05;;;;;;;6.63;2.92;;;26.10;97.20;;;;;;5009007;28;20062;-75
2023/06/10 08:01:54;;;;;;;5.07;2.70;;;26.30;96.80;;;;;;5021184;28;20182;-74
2023/06/10 08:04:30;;;;;;;4.43;2.58;;;26.70;95.80;;;;;;5013245;28;20052;-75
2023/06/10 08:07:20;;;;;;;6.10;3.20;;;26.80;94.80;;;;;;5045263;28;20057;-74
2023/06/10 08:10:15;;;;;;;6.38;2.78;;;27.00;94.60;;;;;;4993991;28;20179;-75
2023/06/10 08:13:01;;;;;;;6.93;2.50;;;27.10;92.40;;;;;;5043243;28;20095;-74
2023/06/10 08:15:58;;;;;;;6.57;3.00;;;27.20;92.80;;;;;;5027401;28;20675;-74
2023/06/10 08:18:29;;;;;;;6.30;3.25;;;27.40;92.40;;;;;;5011315;28;20057;-74
2023/06/10 08:21:24;;;;;;;;;;;27.70;92.00;;;;;;5020582;28;20053;-75
2023/06/10 08:24:06;;;;;;;5.60;2.75;;;27.90;90.20;;;;;;5025845;28;20000;-74
2023/06/10 08:26:47;;;;;;;4.80;2.83;;;28.00;90.70;;;;;;5027135;28;20061;-75
2023/06/10 08:29:31;;;;;;;8.65;3.70;;;28.10;90.90;;;;;;4988279;28;20575;-73
2023/06/10 08:32:08;;;;;;;7.20;3.22;;;28.30;90.20;;;;;;4946876;28;20749;-74
2023/06/10 08:35:11;;;;;;;5.28;3.03;;;28.50;89.80;;;;;;4990187;28;20053;-73
2023/06/10 08:37:59;;;;;;;6.35;3.38;;;28.60;86.70;;;;;;5027203;28;20048;-74
2023/06/10 08:40:34;;;;;;;5.53;3.00;;;28.80;88.60;;;;;;4982746;28;20147;-75
2023/06/10 08:43:43;;;;;;;4.90;3.03;;;29.00;87.00;;;;;;4947564;28;20221;-74
2023/06/10 08:46:18;;;;;;;6.45;3.17;;;29.20;85.40;;;;;;4993510;28;20159;-75
2023/06/10 08:49:20;;;;;;;8.02;2.95;;;29.40;86.20;;;;;;4983783;28;20133;-75
2023/06/10 08:52:39;;;;;;;6.35;3.00;;;29.60;84.60;;;;;;4997975;28;20607;-74
2023/06/10 08:55:22;;;;;;;5.55;2.83;;;29.50;83.60;;;;;;4999575;28;20058;-74
2023/06/10 08:58:15;;;;;;;5.65;3.47;;;29.90;82.80;;;;;;4937278;28;20061;-74
2023/06/10 09:01:19;;;;;;;4.70;2.83;;;30.00;83.90;;;;;;4988582;28;20070;-74
2023/06/10 09:04:26;;;;;;;5.88;2.95;;;30.10;83.40;;;;;;5011933;28;20048;-75
2023/06/10 09:07:06;;;;;;;7.97;3.03;;;30.40;82.50;;;;;;4981583;28;20057;-74
2023/06/10 09:10:13;;;;;;;6.82;3.00;;;30.70;83.00;;;;;;4978444;28;20127;-75
2023/06/10 09:12:43;;;;;;;5.00;2.70;;;30.80;80.00;;;;;;5023647;28;20069;-76
2023/06/10 09:15:18;;;;;;;6.28;2.78;;;30.80;79.80;;;;;;4986115;28;20057;-74
2023/06/10 09:18:19;;;;;;;6.18;2.72;;;30.90;78.90;;;;;;5013067;28;20064;-74
2023/06/10 09:20:48;;;;;;;3.95;2.55;;;30.90;78.20;;;;;;5037295;28;20056;-74
2023/06/10 09:23:51;;;;;;;4.85;2.60;;;31.20;77.40;;;;;;4931300;28;20083;-74
2023/06/10 09:26:18;;;;;;;5.03;2.65;;;31.30;75.00;;;;;;4914198;29;20082;-74
2023/06/10 09:29:20;;;;;;;5.50;2.70;;;31.50;74.70;;;;;;4992694;28;20053;-75
2023/06/10 09:31:55;;;;;;;3.85;2.22;;;31.80;72.50;;;;;;5009997;28;20053;-73
2023/06/10 09:35:00;;;;;;;4.53;3.03;;;31.90;70.80;;;;;;4998186;28;20052;-74
2023/06/10 09:38:23;;;;;;;4.60;2.30;;;32.00;70.20;;;;;;5025549;28;20129;-73
2023/06/10 09:40:53;;;;;;;5.60;2.58;;;32.00;63.60;;;;;;5024584;28;20065;-73
2023/06/10 09:43:43;;;;;;;5.38;2.65;;;32.00;67.60;;;;;;5025140;28;20100;-74
2023/06/10 09:46:19;;;;;;;4.30;2.17;;;32.10;65.90;;;;;;5023262;28;20172;-73
2023/06/10 09:49:03;;;;;;;4.93;2.90;;;32.20;65.50;;;;;;4950885;28;20059;-76
2023/06/10 09:51:50;;;;;;;4.65;2.58;;;32.50;66.70;;;;;;4919313;28;20063;-75
2023/06/10 09:54:34;;;;;;;5.38;2.28;;;32.70;65.70;;;;;;4915306;28;20182;-75
2023/06/10 09:57:10;;;;;;;4.53;2.55;;;32.90;65.00;;;;;;4936967;28;20086;-75
2023/06/10 10:00:05;;;;;;;5.22;2.50;;;33.20;64.40;;;;;;4935502;28;20142;-74
2023/06/10 10:03:01;;;;;;;3.55;2.33;;;33.40;63.00;;;;;;4947743;28;20559;-74
2023/06/10 10:06:03;;;;;;;3.65;2.28;;;33.60;61.90;;;;;;4952614;28;21023;-74
2023/06/10 10:11:45;;;;;;;5.32;2.40;;;33.80;62.20;;;;;;4950542;28;20084;-75
2023/06/10 10:15:15;;;;;;;5.72;2.22;;;34.00;61.50;;;;;;4949528;28;20062;-75
2023/06/10 10:18:12;;;;;;;5.45;2.63;;;34.10;57.80;;;;;;4971245;28;20067;-75
2023/06/10 10:20:57;;;;;;;3.50;2.40;;;34.20;57.80;;;;;;4979615;28;20109;-74
2023/06/10 10:24:26;;;;;;;4.13;2.65;;;34.10;58.70;;;;;;4995888;28;20065;-75
2023/06/10 10:27:06;;;;;;;4.05;2.47;;;34.20;56.30;;;;;;4887440;28;20079;-74
2023/06/10 10:30:08;;;;;;;4.45;2.30;;;34.30;57.30;;;;;;4991362;28;20050;-73
2023/06/10 10:33:13;;;;;;;4.60;2.65;;;34.60;56.80;;;;;;4992628;28;20074;-74
2023/06/10 10:35:55;;;;;;;5.40;2.60;;;34.60;55.80;;;;;;4960138;28;20065;-75
2023/06/10 10:38:42;;;;;;;5.50;2.40;;;34.70;55.70;;;;;;4963453;28;20133;-74
2023/06/10 10:41:27;;;;;;;5.30;3.05;;;34.90;56.30;;;;;;4973318;28;20073;-74
2023/06/10 10:44:17;;;;;;;5.13;2.63;;;35.10;57.40;;;;;;4986004;28;20128;-74
2023/06/10 10:46:53;;;;;;;5.70;2.70;;;35.10;57.20;;;;;;4929452;29;20052;-74
2023/06/10 10:49:32;;;;;;;5.63;2.50;;;35.00;56.60;;;;;;4902161;29;20525;-73
2023/06/10 10:52:25;;;;;;;6.22;2.40;;;35.00;57.00;;;;;;4946241;28;20058;-74
2023/06/10 10:55:18;;;;;;;6.75;2.53;;;35.20;57.10;;;;;;4971628;28;20145;-73
2023/06/10 10:58:32;;;;;;;4.53;2.20;;;35.30;56.80;;;;;;4972723;28;20523;-80
2023/06/10 11:01:26;;;;;;;4.63;2.20;;;35.40;54.40;;;;;;4949240;28;20121;-74
2023/06/10 11:04:26;;;;;;;4.22;2.63;;;35.50;54.30;;;;;;4949332;28;20466;-73
2023/06/10 11:07:09;;;;;;;3.83;2.55;;;35.60;54.70;;;;;;4935612;29;20054;-73
2023/06/10 11:10:01;;;;;;;5.10;1.95;;;35.80;55.30;;;;;;4918216;29;20065;-73
2023/06/10 11:12:49;;;;;;;3.95;2.25;;;35.90;51.80;;;;;;4934371;28;20602;-74
2023/06/10 11:15:28;;;;;;;4.55;2.25;;;35.90;54.20;;;;;;4917446;29;20058;-73
2023/06/10 11:18:35;;;;;;;4.25;2.22;;;35.90;53.50;;;;;;4988110;28;20381;-73
2023/06/10 11:21:29;;;;;;;3.72;2.17;;;36.00;52.30;;;;;;5007163;28;20092;-74
2023/06/10 11:24:00;;;;;;;3.55;2.03;;;36.30;53.20;;;;;;4988975;28;20045;-74
2023/06/10 11:27:18;;;;;;;4.22;2.28;;;36.40;52.40;;;;;;5000850;28;20091;-74
2023/06/10 11:30:26;;;;;;;4.13;2.20;;;36.40;51.90;;;;;;5006677;28;20095;-75
2023/06/10 11:33:05;;;;;;;3.92;2.50;;;36.40;53.50;;;;;;5002159;28;20110;-74
2023/06/10 11:36:11;;;;;;;3.90;2.17;;;36.70;53.10;;;;;;5027171;28;20122;-74
2023/06/10 11:38:43;;;;;;;4.78;2.45;;;36.70;52.90;;;;;;5028203;28;20057;-74
2023/06/10 11:44:29;;;;;;;5.72;2.50;;;37.00;52.20;;;;;;5029745;28;20088;-70
2023/06/10 11:46:56;;;;;;;4.47;2.35;;;37.20;51.70;;;;;;5028204;28;20128;-70
2023/06/10 11:49:27;;;;;;;3.95;2.10;;;37.20;51.70;;;;;;5020837;28;20057;-74
2023/06/10 11:51:54;;;;;;;5.15;2.20;;;37.80;52.20;;;;;;5027349;28;20049;-74
2023/06/10 11:54:27;;;;;;;2.90;2.00;;;37.30;51.30;;;;;;5004785;28;20060;-74
2023/06/10 11:57:03;;;;;;;4.70;2.22;;;37.40;51.70;;;;;;5021124;28;20060;-75
2023/06/10 11:59:42;;;;;;;3.67;2.05;;;37.40;49.90;;;;;;5060858;28;20417;-76
2023/06/10 12:02:31;;;;;;;2.97;1.98;;;37.40;49.80;;;;;;5020740;28;20060;-74
2023/06/10 12:05:23;;;;;;;6.68;2.00;;;37.30;48.90;;;;;;5025927;28;20065;-75
2023/06/10 12:08:13;;;;;;;4.10;2.25;;;37.20;48.50;;;;;;5024375;28;20054;-75
2023/06/10 12:10:53;;;;;;;4.43;2.25;;;37.20;48.90;;;;;;5007765;28;20057;-74
2023/06/10 12:13:46;;;;;;;3.67;2.00;;;37.20;48.50;;;;;;5020593;28;20053;-73
2023/06/10 12:16:19;;;;;;;5.22;2.38;;;37.30;49.10;;;;;;5027841;28;20139;-73
2023/06/10 12:19:05;;;;;;;3.10;2.00;;;37.50;48.90;;;;;;5028901;28;20490;-74
2023/06/10 12:21:38;;;;;;;3.28;1.90;;;37.50;48.80;;;;;;5009767;28;20049;-73
2023/06/10 12:24:17;;;;;;;3.17;1.92;;;37.60;48.30;;;;;;5059931;28;20498;-75
2023/06/10 12:27:04;;;;;;;3.83;2.05;;;37.60;47.60;;;;;;5045108;28;20412;-74
2023/06/10 12:29:41;;;;;;;3.78;2.20;;;37.70;48.30;;;;;;5007808;28;20068;-75
2023/06/10 12:32:25;;;;;;;6.00;2.25;;;37.80;50.00;;;;;;5040149;28;20404;-74
2023/06/10 12:35:03;;;;;;;4.80;2.35;;;37.90;50.90;;;;;;5026355;28;20092;-74
2023/06/10 12:37:43;;;;;;;4.32;2.33;;;38.00;50.90;;;;;;5027538;28;20054;-73
2023/06/10 12:40:15;;;;;;;5.95;2.72;;;37.90;51.70;;;;;;5027732;28;20432;-75
2023/06/10 12:42:59;;;;;;;6.55;2.58;;;37.90;53.80;;;;;;5009946;28;20512;-75
2023/06/10 12:45:45;;;;;;;8.95;3.15;;;37.80;55.00;;;;;;5024950;28;20053;-75
2023/06/10 12:48:55;;;;;;;7.38;2.83;;;37.70;56.20;;;;;;5027819;28;20562;-74
2023/06/10 12:51:26;;;;;;;7.55;3.20;;;37.60;57.60;;;;;;5026289;28;20061;-73
2023/06/10 12:54:17;;;;;;;7.90;3.13;;;37.40;57.10;;;;;;5028256;28;20060;-73
2023/06/10 12:56:52;;;;;;;6.93;3.05;;;37.30;57.70;;;;;;5026142;28;20076;-73
2023/06/10 12:59:41;;;;;;;9.65;3.13;;;37.10;58.20;;;;;;5027440;28;20052;-74
2023/06/10 13:02:26;;;;;;;8.18;3.13;;;36.90;58.40;;;;;;5026439;28;20045;-74
2023/06/10 13:05:04;;;;;;;8.25;3.30;;;36.70;58.80;;;;;;5026324;28;20420;-74
2023/06/10 13:07:49;;;;;;;9.55;3.33;;;36.70;59.00;;;;;;5006666;28;20045;-74
2023/06/10 13:10:28;;;;;;;7.38;3.17;;;36.50;59.10;;;;;;5000522;28;20063;-74
2023/06/10 13:12:59;;;;;;;9.07;3.45;;;36.40;59.50;;;;;;5027729;28;20788;-74
2023/06/10 13:15:37;;;;;;;9.48;3.13;;;36.20;59.70;;;;;;5060215;28;20056;-74
2023/06/10 13:18:05;;;;;;;8.05;3.88;;;36.20;59.80;;;;;;5035391;28;20045;-74
2023/06/10 13:20:38;;;;;;;8.10;2.92;;;36.10;60.10;;;;;;5025702;28;20049;-73
2023/06/10 13:23:07;;;;;;;7.20;3.13;;;36.00;60.10;;;;;;5026115;28;20064;-73
2023/06/10 13:25:44;;;;;;;10.75;3.70;;;35.90;60.10;;;;;;5025871;28;20128;-74
2023/06/10 13:28:30;;;;;;;9.90;3.30;;;35.80;60.20;;;;;;5017366;28;20121;-73
2023/06/10 13:31:22;;;;;;;7.40;2.90;;;35.60;60.60;;;;;;5024321;28;20061;-73
2023/06/10 13:33:52;;;;;;;9.05;3.70;;;35.70;60.80;;;;;;5011260;28;20451;-74
2023/06/10 13:36:27;;;;;;;9.27;3.17;;;35.80;60.50;;;;;;5026201;28;20432;-74
2023/06/10 13:39:13;;;;;;;9.00;3.40;;;35.80;60.40;;;;;;5036104;28;20049;-76
2023/06/10 13:41:47;;;;;;;7.55;2.60;;;35.80;60.70;;;;;;5021839;28;20057;-74
2023/06/10 13:44:16;;;;;;;6.72;2.80;;;35.90;60.80;;;;;;5027138;28;20053;-73
2023/06/10 13:46:42;;;;;;;7.22;3.05;;;35.90;60.60;;;;;;5019141;28;20473;-73
2023/06/10 13:49:09;;;;;;;6.40;2.83;;;35.90;60.40;;;;;;5013117;28;20092;-73
2023/06/10 13:51:37;;;;;;;11.40;3.20;;;35.90;60.50;;;;;;5028262;28;20107;-74
2023/06/10 13:54:27;;;;;;;7.18;3.38;;;35.80;60.30;;;;;;5016768;28;20519;-74
2023/06/10 13:57:00;;;;;;;9.25;3.90;;;35.70;60.40;;;;;;5006836;28;20057;-73
2023/06/10 13:59:33;;;;;;;10.70;2.78;;;35.60;60.40;;;;;;4997931;28;20056;-75
2023/06/10 14:02:09;;;;;;;6.90;3.10;;;35.60;60.90;;;;;;5060395;28;20371;-74
2023/06/10 14:05:02;;;;;;;8.70;3.00;;;35.60;61.00;;;;;;5028688;28;20045;-74
2023/06/10 14:07:42;;;;;;;11.18;3.10;;;35.50;61.40;;;;;;5030451;28;20056;-74
2023/06/10 14:10:34;;;;;;;5.70;2.60;;;35.50;61.20;;;;;;5039781;28;20140;-75
2023/06/10 14:13:30;;;;;;;6.60;3.43;;;35.50;60.90;;;;;;5030030;28;20147;-74